createdAt,value
2017-10-05T00:01:34.008Z,95.20
2017-10-05T00:04:06.718Z,95.20
2017-10-05T00:06:39.339Z,95.30
2017-10-05T00:09:11.146Z,95.10
2017-10-05T00:11:43.159Z,95.10
2017-10-05T00:14:14.112Z,95.10
2017-10-05T00:16:50.477Z,95.20
2017-10-05T00:19:23.079Z,95.20
2017-10-05T00:21:54.023Z,95.50
2017-10-05T00:24:25.806Z,95.40
2017-10-05T00:26:57.229Z,95.70
2017-10-05T00:29:28.920Z,95.40
2017-10-05T00:32:00.408Z,95.50
2017-10-05T00:34:31.680Z,95.30
2017-10-05T00:37:04.069Z,95.50
2017-10-05T00:39:35.225Z,95.50
2017-10-05T00:42:06.891Z,95.60
2017-10-05T00:51:48.963Z,95.60
2017-10-05T00:54:21.439Z,95.70
2017-10-05T00:56:56.842Z,95.70
2017-10-05T00:59:27.592Z,95.60
2017-10-05T01:02:01.740Z,95.70
2017-10-05T01:04:33.298Z,95.70
2017-10-05T01:07:06.904Z,95.80
2017-10-05T01:09:37.298Z,95.90
2017-10-05T01:12:09.074Z,95.90
2017-10-05T01:14:48.252Z,95.90
2017-10-05T01:17:21.961Z,96.10
2017-10-05T01:19:55.061Z,96.40
2017-10-05T01:22:29.580Z,96.40
2017-10-05T01:27:38.829Z,96.40
2017-10-05T01:30:10.128Z,96.30
2017-10-05T01:32:46.030Z,96.50
2017-10-05T01:35:22.698Z,96.50
2017-10-05T01:38:00.089Z,96.40
2017-10-05T01:40:38.701Z,96.70
2017-10-05T01:43:13.126Z,96.70
2017-10-05T01:45:45.988Z,96.90
2017-10-05T01:48:33.177Z,97.00
2017-10-05T01:51:04.111Z,97.20
2017-10-05T01:53:36.727Z,97.20
2017-10-05T01:56:09.442Z,97.20
2017-10-05T01:58:49.311Z,97.50
2017-10-05T02:01:19.855Z,97.70
2017-10-05T02:03:57.199Z,97.60
2017-10-05T02:06:27.876Z,97.90
2017-10-05T02:08:59.003Z,98.00
2017-10-05T02:11:30.030Z,98.00
2017-10-05T02:14:04.143Z,98.20
2017-10-05T02:16:35.161Z,98.20
2017-10-05T02:19:06.888Z,98.00
2017-10-05T02:21:38.596Z,98.10
2017-10-05T02:24:11.402Z,98.20
2017-10-05T02:26:43.888Z,98.30
2017-10-05T02:29:14.685Z,98.10
2017-10-05T02:31:51.202Z,98.20
2017-10-05T02:34:23.875Z,98.30
2017-10-05T02:36:58.136Z,98.20
2017-10-05T02:40:01.603Z,98.20
2017-10-05T02:42:32.723Z,98.30
2017-10-05T02:45:06.425Z,98.20
2017-10-05T02:47:38.525Z,98.40
2017-10-05T02:50:11.797Z,98.30
2017-10-05T02:52:48.297Z,98.30
2017-10-05T02:55:27.806Z,98.50
2017-10-05T02:57:59.883Z,98.40
2017-10-05T03:00:33.664Z,98.40
2017-10-05T03:03:07.777Z,98.40
2017-10-05T03:05:41.952Z,98.40
2017-10-05T03:08:18.804Z,98.40
2017-10-05T03:10:51.227Z,98.50
2017-10-05T03:13:24.161Z,98.30
2017-10-05T03:16:03.956Z,98.40
2017-10-05T03:18:34.866Z,98.40
2017-10-05T03:21:06.705Z,98.50
2017-10-05T03:23:41.518Z,98.50
2017-10-05T03:27:18.917Z,98.50
2017-10-05T03:30:10.806Z,98.50
2017-10-05T03:32:42.846Z,98.60
2017-10-05T03:35:14.261Z,98.60
2017-10-05T03:37:50.933Z,98.90
2017-10-05T03:40:24.227Z,98.70
2017-10-05T03:42:59.992Z,98.60
2017-10-05T03:45:32.087Z,98.80
2017-10-05T03:48:09.289Z,98.80
2017-10-05T03:50:45.301Z,99.00
2017-10-05T03:53:18.486Z,99.00
2017-10-05T03:56:02.636Z,99.00
2017-10-05T04:01:15.670Z,98.70
2017-10-05T04:03:56.550Z,99.00
2017-10-05T04:06:41.196Z,98.90
2017-10-05T04:09:15.263Z,98.90
2017-10-05T04:11:47.818Z,99.00
2017-10-05T04:14:20.357Z,98.90
2017-10-05T04:17:02.051Z,98.80
2017-10-05T04:19:36.089Z,98.90
2017-10-05T04:22:08.901Z,98.90
2017-10-05T04:24:39.551Z,98.90
2017-10-05T04:27:18.182Z,98.90
2017-10-05T04:29:51.951Z,98.70
2017-10-05T04:32:22.688Z,98.80
2017-10-05T04:34:53.184Z,98.70
2017-10-05T04:37:23.737Z,98.70
2017-10-05T04:40:05.959Z,98.70
2017-10-05T04:42:37.978Z,98.80
2017-10-05T04:45:08.549Z,98.80
2017-10-05T04:47:44.959Z,98.80
2017-10-05T04:50:19.273Z,98.80
2017-10-05T04:52:50.056Z,98.80
2017-10-05T04:55:23.547Z,98.70
2017-10-05T04:57:54.581Z,98.70
2017-10-05T05:00:40.600Z,98.60
2017-10-05T05:03:15.653Z,98.80
2017-10-05T05:05:50.810Z,98.80
2017-10-05T05:08:24.604Z,98.80
2017-10-05T05:11:01.850Z,98.60
2017-10-05T05:13:32.497Z,98.60
2017-10-05T05:16:05.574Z,98.60
2017-10-05T05:18:36.007Z,98.70
2017-10-05T05:21:08.501Z,98.60
2017-10-05T05:23:39.351Z,98.60
2017-10-05T05:26:12.117Z,98.60
2017-10-05T05:28:42.583Z,98.60
2017-10-05T05:31:14.749Z,98.50
2017-10-05T05:33:46.632Z,98.70
2017-10-05T05:36:20.586Z,98.80
2017-10-05T05:38:55.154Z,98.90
2017-10-05T05:41:25.933Z,98.90
2017-10-05T05:43:58.840Z,99.20
2017-10-05T05:46:29.819Z,99.30
2017-10-05T05:49:06.495Z,99.10
2017-10-05T05:51:43.056Z,99.20
2017-10-05T05:54:16.090Z,99.30
2017-10-05T05:56:50.320Z,99.10
2017-10-05T05:59:22.472Z,99.20
2017-10-05T06:01:53.304Z,99.20
2017-10-05T06:04:25.788Z,99.40
2017-10-05T06:06:56.803Z,99.30
2017-10-05T06:09:28.797Z,99.30
2017-10-05T06:12:01.137Z,99.30
2017-10-05T06:14:33.015Z,99.40
2017-10-05T06:17:12.378Z,99.20
2017-10-05T06:19:48.392Z,99.10
2017-10-05T06:22:20.518Z,99.30
2017-10-05T06:24:51.681Z,99.30
2017-10-05T06:27:33.603Z,99.10
2017-10-05T06:30:05.146Z,99.20
2017-10-05T06:32:49.501Z,99.20
2017-10-05T06:35:36.248Z,99.20
2017-10-05T06:38:10.625Z,99.30
2017-10-05T06:40:53.152Z,99.20
2017-10-05T06:43:27.508Z,99.20
2017-10-05T06:46:01.824Z,99.20
2017-10-05T06:48:35.386Z,99.10
2017-10-05T06:51:11.363Z,99.20
2017-10-05T06:53:42.242Z,99.20
2017-10-05T06:56:14.670Z,99.30
2017-10-05T06:58:50.953Z,99.30
2017-10-05T07:01:30.832Z,99.50
2017-10-05T07:04:03.795Z,99.50
2017-10-05T07:06:40.223Z,99.60
2017-10-05T07:09:23.456Z,99.60
2017-10-05T07:11:55.586Z,99.80
2017-10-05T07:14:27.469Z,99.80
2017-10-05T07:17:02.833Z,99.60
2017-10-05T07:19:36.005Z,99.60
2017-10-05T07:22:09.117Z,99.50
2017-10-05T07:24:48.477Z,99.60
2017-10-05T07:27:25.826Z,99.80
2017-10-05T07:29:58.324Z,99.80
2017-10-05T07:32:46.845Z,99.80
2017-10-05T07:35:21.361Z,99.60
2017-10-05T07:37:55.362Z,99.60
2017-10-05T07:40:36.353Z,99.60
2017-10-05T07:43:17.712Z,99.80
2017-10-05T07:45:51.135Z,99.80
2017-10-05T07:48:27.119Z,99.90
2017-10-05T07:51:04.676Z,99.90
2017-10-05T07:53:37.507Z,99.90
2017-10-05T07:56:15.889Z,99.90
2017-10-05T07:58:49.995Z,99.90
2017-10-05T08:01:23.996Z,99.90
2017-10-05T08:04:01.698Z,99.90
2017-10-05T08:06:34.286Z,99.80
2017-10-05T08:09:06.734Z,99.90
2017-10-05T08:11:48.536Z,99.90
2017-10-05T08:14:21.558Z,99.90
2017-10-05T08:16:53.711Z,99.90
2017-10-05T08:19:27.181Z,99.90
2017-10-05T08:22:00.132Z,99.90
2017-10-05T08:25:04.181Z,99.90
2017-10-05T08:27:38.255Z,99.90
2017-10-05T08:33:09.828Z,99.90
2017-10-05T08:35:44.429Z,99.90
2017-10-05T08:38:16.572Z,99.90
2017-10-05T08:40:49.534Z,99.90
2017-10-05T08:43:31.740Z,99.90
2017-10-05T08:46:04.297Z,99.90
2017-10-05T08:48:39.166Z,99.90
2017-10-05T08:51:19.041Z,99.90
2017-10-05T08:53:50.960Z,99.90
2017-10-05T09:02:20.945Z,99.90
2017-10-05T09:04:52.665Z,99.90
2017-10-05T09:07:24.705Z,99.90
2017-10-05T09:10:00.655Z,99.90
2017-10-05T09:12:33.540Z,99.90
2017-10-05T09:15:13.395Z,99.90
2017-10-05T09:17:47.885Z,99.90
2017-10-05T09:20:19.209Z,99.90
2017-10-05T09:22:54.210Z,99.90
2017-10-05T09:25:25.879Z,99.90
2017-10-05T09:28:03.579Z,99.80
2017-10-05T09:30:36.374Z,99.80
2017-10-05T09:33:09.145Z,99.50
2017-10-05T09:35:40.728Z,99.30
2017-10-05T09:38:12.298Z,99.20
2017-10-05T09:40:43.624Z,98.80
2017-10-05T09:43:15.022Z,98.70
2017-10-05T09:45:47.269Z,98.40
2017-10-05T09:48:18.034Z,98.00
2017-10-05T09:50:51.165Z,97.60
2017-10-05T09:53:23.400Z,97.80
2017-10-05T09:55:56.177Z,97.80
2017-10-05T09:58:27.710Z,97.80
2017-10-05T10:01:00.497Z,98.00
2017-10-05T10:03:31.100Z,97.20
2017-10-05T10:06:04.012Z,96.80
2017-10-05T10:08:36.203Z,93.90
2017-10-05T10:11:08.478Z,93.00
2017-10-05T10:13:40.818Z,92.90
2017-10-05T10:16:11.367Z,92.70
2017-10-05T10:18:45.028Z,92.10
2017-10-05T10:21:16.580Z,92.50
2017-10-05T10:23:51.030Z,92.50
2017-10-05T10:26:23.807Z,92.70
2017-10-05T10:28:56.652Z,92.90
2017-10-05T10:31:30.644Z,92.30
2017-10-05T10:34:01.957Z,92.70
2017-10-05T10:36:34.867Z,93.00
2017-10-05T10:39:06.913Z,92.70
2017-10-05T10:41:39.160Z,93.80
2017-10-05T10:44:09.757Z,93.70
2017-10-05T10:46:47.979Z,94.90
2017-10-05T10:49:22.133Z,95.90
2017-10-05T10:51:54.370Z,95.90
2017-10-05T10:54:25.085Z,96.40
2017-10-05T10:57:01.618Z,96.10
2017-10-05T10:59:35.393Z,95.30
2017-10-05T11:02:13.141Z,95.20
2017-10-05T11:04:45.558Z,94.20
2017-10-05T11:07:27.334Z,93.70
2017-10-05T11:13:43.961Z,94.80
2017-10-05T11:16:19.373Z,94.00
2017-10-05T11:18:50.514Z,94.00
2017-10-05T11:21:25.300Z,93.40
2017-10-05T11:23:58.329Z,93.40
2017-10-05T11:26:30.668Z,93.80
2017-10-05T11:36:02.585Z,92.60
2017-10-05T11:38:33.671Z,92.90
2017-10-05T11:41:09.892Z,92.40
2017-10-05T11:43:45.806Z,92.50
2017-10-05T11:46:17.478Z,92.20
2017-10-05T11:48:48.337Z,92.20
2017-10-05T11:51:21.936Z,92.00
2017-10-05T11:53:53.812Z,92.00
2017-10-05T11:56:25.387Z,91.90
2017-10-05T11:58:57.865Z,92.30
2017-10-05T12:01:30.128Z,92.40
2017-10-05T12:04:09.246Z,92.20
2017-10-05T12:06:40.650Z,91.40
2017-10-05T12:09:16.407Z,91.50
2017-10-05T12:11:47.045Z,91.10
2017-10-05T12:14:21.076Z,90.30
2017-10-05T12:16:53.285Z,90.30
2017-10-05T12:19:29.108Z,90.70
2017-10-05T12:21:59.966Z,90.90
2017-10-05T12:24:32.714Z,91.10
2017-10-05T12:27:04.599Z,89.10
2017-10-05T12:32:22.629Z,86.70
2017-10-05T12:34:54.367Z,87.20
2017-10-05T12:37:26.025Z,88.20
2017-10-05T12:39:57.333Z,90.30
2017-10-05T12:42:29.746Z,91.50
2017-10-05T12:45:00.384Z,92.20
2017-10-05T12:47:31.556Z,92.40
2017-10-05T12:50:03.167Z,92.50
2017-10-05T12:52:37.996Z,92.50
2017-10-05T12:55:12.714Z,92.40
2017-10-05T12:57:58.964Z,92.40
2017-10-05T13:00:31.216Z,92.60
2017-10-05T13:03:06.554Z,92.30
2017-10-05T13:05:41.047Z,92.30
2017-10-05T13:08:16.460Z,92.60
2017-10-05T13:10:50.463Z,93.10
2017-10-05T13:13:27.331Z,93.70
2017-10-05T13:15:58.792Z,93.30
2017-10-05T13:18:30.516Z,94.50
2017-10-05T13:21:04.280Z,93.60
2017-10-05T13:23:37.658Z,92.50
2017-10-05T13:26:09.915Z,93.10
2017-10-05T13:28:41.495Z,92.00
2017-10-05T13:31:21.138Z,91.20
2017-10-05T13:33:51.845Z,91.40
2017-10-05T13:36:26.262Z,90.80
2017-10-05T13:39:00.055Z,89.70
2017-10-05T13:41:33.057Z,85.40
2017-10-05T13:44:03.405Z,85.40
2017-10-05T13:46:37.270Z,86.10
2017-10-05T13:49:08.434Z,86.00
2017-10-05T13:51:43.577Z,86.70
2017-10-05T13:54:14.821Z,86.30
2017-10-05T13:56:46.382Z,86.80
2017-10-05T13:59:25.105Z,87.40
2017-10-05T14:01:55.890Z,86.20
2017-10-05T14:04:29.304Z,86.40
2017-10-05T14:07:02.628Z,87.60
2017-10-05T14:09:34.252Z,88.30
2017-10-05T14:12:04.787Z,88.80
2017-10-05T14:14:42.033Z,88.80
2017-10-05T14:17:14.341Z,87.40
2017-10-05T14:19:47.231Z,86.30
2017-10-05T14:22:24.529Z,86.20
2017-10-05T14:24:58.397Z,85.00
2017-10-05T14:27:32.354Z,85.40
2017-10-05T14:30:06.294Z,85.30
2017-10-05T14:32:37.687Z,85.30
2017-10-05T14:35:18.666Z,83.90
2017-10-05T14:37:54.673Z,83.90
2017-10-05T14:40:27.288Z,84.40
2017-10-05T14:43:01.347Z,84.30
2017-10-05T14:45:31.941Z,84.10
2017-10-05T14:48:05.442Z,80.70
2017-10-05T14:50:35.978Z,81.40
2017-10-05T14:53:07.180Z,80.60
2017-10-05T14:55:39.075Z,79.60
2017-10-05T14:58:12.038Z,79.60
2017-10-05T15:00:42.965Z,80.00
2017-10-05T15:03:16.298Z,80.20
2017-10-05T15:05:49.136Z,82.00
2017-10-05T15:08:21.897Z,82.90
2017-10-05T15:10:53.612Z,82.20
2017-10-05T15:13:25.799Z,83.10
2017-10-05T15:15:56.444Z,83.10
2017-10-05T15:21:04.745Z,83.10
2017-10-05T15:23:36.867Z,83.10
2017-10-05T15:26:10.940Z,82.70
2017-10-05T15:28:43.301Z,83.50
2017-10-05T15:31:17.202Z,83.30
2017-10-05T15:33:47.928Z,83.40
2017-10-05T15:36:57.762Z,83.90
2017-10-05T15:39:35.872Z,84.40
2017-10-05T15:42:09.654Z,83.90
2017-10-05T15:44:42.605Z,83.80
2017-10-05T15:47:15.856Z,85.30
2017-10-05T15:49:47.654Z,85.30
2017-10-05T15:52:20.698Z,86.00
2017-10-05T15:54:52.057Z,86.20
2017-10-05T15:57:37.032Z,86.90
2017-10-05T16:00:08.501Z,87.20
2017-10-05T16:02:41.775Z,87.00
2017-10-05T16:05:14.398Z,87.00
2017-10-05T16:07:45.368Z,86.30
2017-10-05T16:10:16.946Z,86.40
2017-10-05T16:12:49.234Z,85.90
2017-10-05T16:15:23.091Z,85.20
2017-10-05T16:20:36.820Z,85.30
2017-10-05T16:23:10.471Z,84.60
2017-10-05T16:25:41.881Z,84.60
2017-10-05T16:28:14.307Z,84.70
2017-10-05T16:30:48.960Z,82.30
2017-10-05T16:33:23.531Z,82.20
2017-10-05T16:35:56.690Z,82.40
2017-10-05T16:38:27.338Z,82.50
2017-10-05T16:40:58.660Z,82.50
2017-10-05T16:43:29.981Z,83.00
2017-10-05T16:46:03.936Z,82.60
2017-10-05T16:48:40.488Z,82.50
2017-10-05T16:51:11.473Z,82.80
2017-10-05T16:53:42.123Z,82.80
2017-10-05T16:56:15.936Z,83.30
2017-10-05T16:58:49.306Z,83.40
2017-10-05T17:01:20.001Z,83.40
2017-10-05T17:03:53.683Z,84.40
2017-10-05T17:06:29.731Z,84.40
2017-10-05T17:09:02.364Z,84.80
2017-10-05T17:11:34.633Z,85.30
2017-10-05T17:14:08.292Z,85.80
2017-10-05T17:16:39.963Z,85.80
2017-10-05T17:19:13.454Z,86.00
2017-10-05T17:21:44.104Z,86.20
2017-10-05T17:24:17.190Z,86.40
2017-10-05T17:26:49.048Z,86.50
2017-10-05T17:29:21.978Z,86.80
2017-10-05T17:31:53.435Z,87.20
2017-10-05T17:34:27.330Z,87.30
2017-10-05T17:36:58.288Z,87.50
2017-10-05T17:39:32.186Z,87.90
2017-10-05T17:42:02.899Z,87.90
2017-10-05T17:44:34.346Z,88.00
2017-10-05T17:47:11.316Z,88.20
2017-10-05T17:49:42.607Z,88.20
2017-10-05T17:52:16.913Z,88.80
2017-10-05T17:54:52.259Z,88.80
2017-10-05T17:57:23.743Z,89.10
2017-10-05T17:59:58.362Z,89.10
2017-10-05T18:02:29.675Z,88.80
2017-10-05T18:05:02.248Z,88.80
2017-10-05T18:07:32.859Z,88.90
2017-10-05T18:10:05.415Z,89.10
2017-10-05T18:12:36.226Z,88.90
2017-10-05T18:15:14.756Z,88.30
2017-10-05T18:17:47.792Z,88.30
2017-10-05T18:20:20.279Z,88.60
2017-10-05T18:22:53.358Z,88.70
2017-10-05T18:25:25.566Z,88.80
2017-10-05T18:30:36.415Z,88.90
2017-10-05T18:33:09.904Z,89.60
2017-10-05T18:35:42.694Z,89.70
2017-10-05T18:38:15.420Z,89.70
2017-10-05T18:40:46.813Z,90.00
2017-10-05T18:43:20.014Z,90.40
2017-10-05T18:45:51.476Z,90.50
2017-10-05T18:48:25.251Z,90.50
2017-10-05T18:50:59.823Z,90.50
2017-10-05T18:53:31.603Z,90.60
2017-10-05T18:56:02.453Z,90.60
2017-10-05T18:58:34.530Z,90.90
2017-10-05T19:01:07.830Z,90.80
2017-10-05T19:03:44.531Z,90.90
2017-10-05T19:06:15.700Z,91.00
2017-10-05T19:08:49.330Z,91.20
2017-10-05T19:11:21.122Z,91.10
2017-10-05T19:13:53.121Z,91.00
2017-10-05T19:16:25.535Z,91.00
2017-10-05T19:18:59.332Z,91.00
2017-10-05T19:21:30.281Z,90.90
2017-10-05T19:24:02.773Z,91.10
2017-10-05T19:26:34.392Z,91.10
2017-10-05T19:29:09.154Z,91.10
2017-10-05T19:31:39.913Z,91.10
2017-10-05T19:34:11.035Z,91.10
2017-10-05T19:36:43.914Z,90.90
2017-10-05T19:39:15.083Z,91.00
2017-10-05T19:41:46.756Z,90.90
2017-10-05T19:44:19.369Z,90.90
2017-10-05T19:46:51.059Z,90.90
2017-10-05T19:49:23.042Z,90.90
2017-10-05T19:51:54.510Z,90.80
2017-10-05T19:54:26.556Z,90.90
2017-10-05T19:56:59.300Z,91.00
2017-10-05T19:59:31.637Z,91.10
2017-10-05T20:02:03.750Z,91.10
2017-10-05T20:04:35.302Z,91.00
2017-10-05T20:07:08.176Z,91.00
2017-10-05T20:09:39.307Z,90.90
2017-10-05T20:12:10.499Z,90.80
2017-10-05T20:14:41.765Z,91.20
2017-10-05T20:17:20.361Z,91.00
2017-10-05T20:19:54.284Z,90.80
2017-10-05T20:22:26.655Z,91.10
2017-10-05T20:24:58.095Z,90.80
2017-10-05T20:27:30.161Z,90.90
2017-10-05T20:30:00.885Z,90.90
2017-10-05T20:32:31.742Z,91.10
2017-10-05T20:35:03.630Z,91.10
2017-10-05T20:37:34.871Z,91.20
2017-10-05T20:40:07.329Z,91.20
2017-10-05T20:42:38.086Z,91.10
2017-10-05T20:45:08.735Z,91.20
2017-10-05T20:47:40.827Z,91.30
2017-10-05T20:50:16.369Z,91.10
2017-10-05T20:52:47.985Z,91.10
2017-10-05T20:55:19.483Z,91.10
2017-10-05T20:57:51.963Z,91.20
2017-10-05T21:00:23.877Z,91.10
2017-10-05T21:02:55.563Z,91.30
2017-10-05T21:05:26.483Z,91.20
2017-10-05T21:07:57.626Z,91.10
2017-10-05T21:11:03.482Z,91.00
2017-10-05T21:13:35.097Z,91.10
2017-10-05T21:16:08.523Z,91.10
2017-10-05T21:18:39.541Z,91.00
2017-10-05T21:21:10.920Z,91.10
2017-10-05T21:23:42.517Z,91.20
2017-10-05T21:26:15.980Z,91.30
2017-10-05T21:28:48.085Z,91.20
2017-10-05T21:31:20.108Z,91.50
2017-10-05T21:33:51.117Z,91.50
2017-10-05T21:36:25.657Z,91.70
2017-10-05T21:38:58.413Z,91.90
2017-10-05T21:41:29.099Z,91.90
2017-10-05T21:44:03.192Z,91.90
2017-10-05T21:46:36.731Z,91.60
2017-10-05T21:49:07.682Z,91.60
2017-10-05T21:54:28.453Z,91.70
2017-10-05T21:57:02.322Z,91.90
2017-10-05T21:59:42.951Z,91.90
2017-10-05T22:02:14.455Z,92.30
2017-10-05T22:04:45.619Z,92.00
2017-10-05T22:07:19.330Z,92.10
2017-10-05T22:09:50.563Z,92.10
2017-10-05T22:12:22.644Z,92.10
2017-10-05T22:14:53.739Z,92.30
2017-10-05T22:17:25.383Z,92.40
2017-10-05T22:20:00.432Z,92.40
2017-10-05T22:22:31.529Z,92.20
2017-10-05T22:25:02.576Z,92.30
2017-10-05T22:27:33.695Z,92.70
2017-10-05T22:30:05.804Z,92.50
2017-10-05T22:32:38.431Z,92.50
2017-10-05T22:35:10.917Z,92.50
2017-10-05T22:37:42.692Z,92.60
2017-10-05T22:40:15.573Z,92.60
2017-10-05T22:42:46.548Z,92.70
2017-10-05T22:45:20.486Z,92.70
2017-10-05T22:47:52.096Z,92.70
2017-10-05T22:50:23.065Z,92.50
2017-10-05T22:52:54.215Z,92.50
2017-10-05T22:55:25.925Z,92.40
2017-10-05T22:57:57.925Z,92.30
2017-10-05T23:00:43.217Z,92.40
2017-10-05T23:03:19.477Z,92.50
2017-10-05T23:05:50.911Z,92.30
2017-10-05T23:08:21.980Z,92.50
2017-10-05T23:10:54.158Z,92.60
2017-10-05T23:13:34.507Z,92.50
2017-10-05T23:16:17.315Z,92.50
2017-10-05T23:18:49.161Z,92.70
2017-10-05T23:21:20.982Z,92.40
2017-10-05T23:23:54.243Z,92.40
2017-10-05T23:26:25.355Z,92.40
2017-10-05T23:28:57.026Z,92.40
2017-10-05T23:31:37.527Z,92.60
2017-10-05T23:34:08.385Z,92.70
2017-10-05T23:37:09.467Z,92.70
2017-10-05T23:39:40.826Z,93.10
2017-10-05T23:42:14.302Z,93.10
2017-10-05T23:44:57.539Z,93.20
2017-10-05T23:47:31.469Z,93.30
2017-10-05T23:50:14.272Z,93.00
2017-10-05T23:52:45.608Z,93.20
2017-10-05T23:55:23.978Z,92.90
2017-10-05T23:57:59.786Z,92.90
